sensor_id;sensor_type;location;lat;lon;timestamp;P1;durP1;ratioP1;P2;durP2;ratioP2
19189;SDS011;9727;50.200;19.038;2023-04-24T00:01:36;10.40;;;7.23;;
19189;SDS011;9727;50.200;19.038;2023-04-24T00:04:04;11.87;;;7.80;;
19189;SDS011;9727;50.200;19.038;2023-04-24T00:06:32;10.70;;;7.50;;
19189;SDS011;9727;50.200;19.038;2023-04-24T00:08:59;10.13;;;7.37;;
19189;SDS011;9727;50.200;19.038;2023-04-24T00:11:26;10.00;;;7.67;;
19189;SDS011;9727;50.200;19.038;2023-04-24T00:13:54;13.30;;;8.20;;
19189;SDS011;9727;50.200;19.038;2023-04-24T00:16:21;13.00;;;7.47;;
19189;SDS011;9727;50.200;19.038;2023-04-24T00:18:50;16.37;;;8.27;;
19189;SDS011;9727;50.200;19.038;2023-04-24T00:21:21;16.40;;;8.97;;
19189;SDS011;9727;50.200;19.038;2023-04-24T00:23:50;11.27;;;8.40;;
19189;SDS011;9727;50.200;19.038;2023-04-24T00:26:17;16.70;;;9.50;;
19189;SDS011;9727;50.200;19.038;2023-04-24T00:28:50;20.73;;;10.10;;
19189;SDS011;9727;50.200;19.038;2023-04-24T00:31:17;15.83;;;9.70;;
19189;SDS011;9727;50.200;19.038;2023-04-24T00:33:45;19.83;;;11.07;;
19189;SDS011;9727;50.200;19.038;2023-04-24T00:36:13;22.90;;;10.83;;
19189;SDS011;9727;50.200;19.038;2023-04-24T00:38:40;19.50;;;11.67;;
19189;SDS011;9727;50.200;19.038;2023-04-24T00:41:07;21.43;;;12.13;;
19189;SDS011;9727;50.200;19.038;2023-04-24T00:43:33;21.80;;;11.40;;
19189;SDS011;9727;50.200;19.038;2023-04-24T00:46:12;21.70;;;11.00;;
19189;SDS011;9727;50.200;19.038;2023-04-24T00:48:41;15.87;;;9.60;;
19189;SDS011;9727;50.200;19.038;2023-04-24T00:51:08;14.43;;;9.20;;
19189;SDS011;9727;50.200;19.038;2023-04-24T00:53:34;17.60;;;9.67;;
19189;SDS011;9727;50.200;19.038;2023-04-24T00:56:13;15.83;;;9.30;;
19189;SDS011;9727;50.200;19.038;2023-04-24T00:58:40;13.53;;;8.87;;
19189;SDS011;9727;50.200;19.038;2023-04-24T01:01:07;13.07;;;8.90;;
19189;SDS011;9727;50.200;19.038;2023-04-24T01:03:34;13.90;;;7.67;;
19189;SDS011;9727;50.200;19.038;2023-04-24T01:06:04;13.90;;;7.20;;
19189;SDS011;9727;50.200;19.038;2023-04-24T01:08:37;9.70;;;6.97;;
19189;SDS011;9727;50.200;19.038;2023-04-24T01:11:05;10.63;;;6.50;;
19189;SDS011;9727;50.200;19.038;2023-04-24T01:13:32;9.23;;;6.80;;
19189;SDS011;9727;50.200;19.038;2023-04-24T01:16:07;13.83;;;6.80;;
19189;SDS011;9727;50.200;19.038;2023-04-24T01:18:35;10.67;;;6.80;;
19189;SDS011;9727;50.200;19.038;2023-04-24T01:21:02;8.93;;;6.10;;
19189;SDS011;9727;50.200;19.038;2023-04-24T01:23:31;10.17;;;6.30;;
19189;SDS011;9727;50.200;19.038;2023-04-24T01:26:01;10.50;;;5.87;;
19189;SDS011;9727;50.200;19.038;2023-04-24T01:28:37;9.57;;;6.43;;
19189;SDS011;9727;50.200;19.038;2023-04-24T01:31:13;10.03;;;6.30;;
19189;SDS011;9727;50.200;19.038;2023-04-24T01:33:40;8.97;;;5.30;;
19189;SDS011;9727;50.200;19.038;2023-04-24T01:36:07;10.57;;;6.40;;
19189;SDS011;9727;50.200;19.038;2023-04-24T01:38:42;9.57;;;5.73;;
19189;SDS011;9727;50.200;19.038;2023-04-24T01:41:10;9.77;;;6.07;;
19189;SDS011;9727;50.200;19.038;2023-04-24T01:43:48;9.50;;;6.10;;
19189;SDS011;9727;50.200;19.038;2023-04-24T01:46:17;9.43;;;6.27;;
19189;SDS011;9727;50.200;19.038;2023-04-24T01:48:44;9.17;;;5.80;;
19189;SDS011;9727;50.200;19.038;2023-04-24T01:51:14;11.33;;;6.10;;
19189;SDS011;9727;50.200;19.038;2023-04-24T01:53:43;8.27;;;6.30;;
19189;SDS011;9727;50.200;19.038;2023-04-24T01:56:09;8.23;;;6.17;;
19189;SDS011;9727;50.200;19.038;2023-04-24T01:58:36;10.47;;;6.20;;
19189;SDS011;9727;50.200;19.038;2023-04-24T02:01:02;8.27;;;6.00;;
19189;SDS011;9727;50.200;19.038;2023-04-24T02:03:29;13.73;;;6.40;;
19189;SDS011;9727;50.200;19.038;2023-04-24T02:05:56;9.33;;;6.10;;
19189;SDS011;9727;50.200;19.038;2023-04-24T02:08:22;11.67;;;6.70;;
19189;SDS011;9727;50.200;19.038;2023-04-24T02:10:50;9.70;;;6.10;;
19189;SDS011;9727;50.200;19.038;2023-04-24T02:13:17;8.23;;;6.00;;
19189;SDS011;9727;50.200;19.038;2023-04-24T02:15:44;9.27;;;5.80;;
19189;SDS011;9727;50.200;19.038;2023-04-24T02:18:10;11.43;;;5.60;;
19189;SDS011;9727;50.200;19.038;2023-04-24T02:20:37;9.23;;;6.10;;
19189;SDS011;9727;50.200;19.038;2023-04-24T02:23:04;9.27;;;5.53;;
19189;SDS011;9727;50.200;19.038;2023-04-24T02:25:31;9.37;;;5.73;;
19189;SDS011;9727;50.200;19.038;2023-04-24T02:27:59;13.03;;;5.83;;
19189;SDS011;9727;50.200;19.038;2023-04-24T02:30:28;8.60;;;5.63;;
19189;SDS011;9727;50.200;19.038;2023-04-24T02:32:54;8.33;;;5.57;;
19189;SDS011;9727;50.200;19.038;2023-04-24T02:35:21;8.23;;;5.50;;
19189;SDS011;9727;50.200;19.038;2023-04-24T02:37:48;9.97;;;5.87;;
19189;SDS011;9727;50.200;19.038;2023-04-24T02:40:15;10.13;;;5.53;;
19189;SDS011;9727;50.200;19.038;2023-04-24T02:42:41;9.40;;;5.93;;
19189;SDS011;9727;50.200;19.038;2023-04-24T02:45:10;9.10;;;5.90;;
19189;SDS011;9727;50.200;19.038;2023-04-24T02:47:36;9.00;;;5.87;;
19189;SDS011;9727;50.200;19.038;2023-04-24T02:50:03;8.53;;;6.10;;
19189;SDS011;9727;50.200;19.038;2023-04-24T02:52:30;8.97;;;6.03;;
19189;SDS011;9727;50.200;19.038;2023-04-24T02:54:57;9.57;;;6.13;;
19189;SDS011;9727;50.200;19.038;2023-04-24T02:57:23;7.57;;;5.80;;
19189;SDS011;9727;50.200;19.038;2023-04-24T02:59:50;6.60;;;4.93;;
19189;SDS011;9727;50.200;19.038;2023-04-24T03:02:19;10.43;;;5.10;;
19189;SDS011;9727;50.200;19.038;2023-04-24T03:04:47;6.63;;;4.70;;
19189;SDS011;9727;50.200;19.038;2023-04-24T03:07:13;6.50;;;5.00;;
19189;SDS011;9727;50.200;19.038;2023-04-24T03:09:40;6.10;;;4.27;;
19189;SDS011;9727;50.200;19.038;2023-04-24T03:12:07;7.43;;;4.70;;
19189;SDS011;9727;50.200;19.038;2023-04-24T03:14:33;8.27;;;4.80;;
19189;SDS011;9727;50.200;19.038;2023-04-24T03:17:00;7.87;;;4.57;;
19189;SDS011;9727;50.200;19.038;2023-04-24T03:19:28;7.87;;;4.83;;
19189;SDS011;9727;50.200;19.038;2023-04-24T03:21:54;9.27;;;4.93;;
19189;SDS011;9727;50.200;19.038;2023-04-24T03:24:21;6.53;;;4.77;;
19189;SDS011;9727;50.200;19.038;2023-04-24T03:26:47;7.53;;;5.50;;
19189;SDS011;9727;50.200;19.038;2023-04-24T03:29:14;6.83;;;4.90;;
19189;SDS011;9727;50.200;19.038;2023-04-24T03:31:40;7.50;;;5.10;;
19189;SDS011;9727;50.200;19.038;2023-04-24T03:34:07;8.23;;;5.27;;
19189;SDS011;9727;50.200;19.038;2023-04-24T03:36:37;8.87;;;4.90;;
19189;SDS011;9727;50.200;19.038;2023-04-24T03:39:11;6.23;;;4.80;;
19189;SDS011;9727;50.200;19.038;2023-04-24T03:41:39;6.53;;;4.90;;
19189;SDS011;9727;50.200;19.038;2023-04-24T03:44:05;6.37;;;4.60;;
19189;SDS011;9727;50.200;19.038;2023-04-24T03:46:32;8.60;;;4.60;;
19189;SDS011;9727;50.200;19.038;2023-04-24T03:48:59;7.00;;;4.30;;
19189;SDS011;9727;50.200;19.038;2023-04-24T03:51:25;6.63;;;4.60;;
19189;SDS011;9727;50.200;19.038;2023-04-24T03:53:54;6.57;;;4.60;;
19189;SDS011;9727;50.200;19.038;2023-04-24T03:56:21;6.97;;;4.40;;
19189;SDS011;9727;50.200;19.038;2023-04-24T03:58:47;8.37;;;5.10;;
19189;SDS011;9727;50.200;19.038;2023-04-24T04:01:14;8.30;;;4.70;;
19189;SDS011;9727;50.200;19.038;2023-04-24T04:03:41;6.07;;;4.60;;
19189;SDS011;9727;50.200;19.038;2023-04-24T04:06:07;7.97;;;4.73;;
19189;SDS011;9727;50.200;19.038;2023-04-24T04:08:38;8.60;;;4.37;;
19189;SDS011;9727;50.200;19.038;2023-04-24T04:11:14;6.80;;;4.60;;
19189;SDS011;9727;50.200;19.038;2023-04-24T04:13:41;6.23;;;4.57;;
19189;SDS011;9727;50.200;19.038;2023-04-24T04:16:08;8.73;;;5.00;;
19189;SDS011;9727;50.200;19.038;2023-04-24T04:18:41;8.03;;;5.20;;
19189;SDS011;9727;50.200;19.038;2023-04-24T04:21:07;7.33;;;4.40;;
19189;SDS011;9727;50.200;19.038;2023-04-24T04:23:34;5.13;;;4.27;;
19189;SDS011;9727;50.200;19.038;2023-04-24T04:26:03;7.43;;;4.50;;
19189;SDS011;9727;50.200;19.038;2023-04-24T04:28:31;6.60;;;4.43;;
19189;SDS011;9727;50.200;19.038;2023-04-24T04:30:58;5.80;;;4.87;;
19189;SDS011;9727;50.200;19.038;2023-04-24T04:33:24;7.20;;;4.33;;
19189;SDS011;9727;50.200;19.038;2023-04-24T04:35:51;6.23;;;4.37;;
19189;SDS011;9727;50.200;19.038;2023-04-24T04:38:24;10.93;;;5.03;;
19189;SDS011;9727;50.200;19.038;2023-04-24T04:40:51;8.30;;;5.20;;
19189;SDS011;9727;50.200;19.038;2023-04-24T04:43:21;8.50;;;5.03;;
19189;SDS011;9727;50.200;19.038;2023-04-24T04:45:50;8.03;;;4.77;;
19189;SDS011;9727;50.200;19.038;2023-04-24T04:48:17;9.20;;;4.73;;
19189;SDS011;9727;50.200;19.038;2023-04-24T04:50:44;8.43;;;4.20;;
19189;SDS011;9727;50.200;19.038;2023-04-24T04:53:12;6.50;;;4.67;;
19189;SDS011;9727;50.200;19.038;2023-04-24T04:55:52;6.93;;;4.50;;
19189;SDS011;9727;50.200;19.038;2023-04-24T04:58:19;5.97;;;4.37;;
19189;SDS011;9727;50.200;19.038;2023-04-24T05:00:51;6.33;;;4.53;;
19189;SDS011;9727;50.200;19.038;2023-04-24T05:03:22;7.43;;;4.33;;
19189;SDS011;9727;50.200;19.038;2023-04-24T05:05:49;8.23;;;4.87;;
19189;SDS011;9727;50.200;19.038;2023-04-24T05:08:15;7.33;;;4.53;;
19189;SDS011;9727;50.200;19.038;2023-04-24T05:10:42;5.87;;;4.47;;
19189;SDS011;9727;50.200;19.038;2023-04-24T05:13:09;7.67;;;5.10;;
19189;SDS011;9727;50.200;19.038;2023-04-24T05:15:45;9.50;;;5.47;;
19189;SDS011;9727;50.200;19.038;2023-04-24T05:18:23;12.50;;;5.60;;
19189;SDS011;9727;50.200;19.038;2023-04-24T05:20:50;8.00;;;5.40;;
19189;SDS011;9727;50.200;19.038;2023-04-24T05:23:17;9.90;;;5.10;;
19189;SDS011;9727;50.200;19.038;2023-04-24T05:25:45;9.90;;;5.57;;
19189;SDS011;9727;50.200;19.038;2023-04-24T05:28:13;10.80;;;5.73;;
19189;SDS011;9727;50.200;19.038;2023-04-24T05:30:40;7.43;;;4.93;;
19189;SDS011;9727;50.200;19.038;2023-04-24T05:33:07;7.33;;;4.87;;
19189;SDS011;9727;50.200;19.038;2023-04-24T05:35:35;5.50;;;4.60;;
19189;SDS011;9727;50.200;19.038;2023-04-24T05:38:02;7.37;;;4.67;;
19189;SDS011;9727;50.200;19.038;2023-04-24T05:40:29;6.90;;;4.80;;
19189;SDS011;9727;50.200;19.038;2023-04-24T05:42:55;8.00;;;4.60;;
19189;SDS011;9727;50.200;19.038;2023-04-24T05:45:22;8.43;;;4.50;;
19189;SDS011;9727;50.200;19.038;2023-04-24T05:47:48;8.47;;;5.10;;
19189;SDS011;9727;50.200;19.038;2023-04-24T05:50:17;6.07;;;4.30;;
19189;SDS011;9727;50.200;19.038;2023-04-24T05:52:48;7.30;;;4.50;;
19189;SDS011;9727;50.200;19.038;2023-04-24T05:55:15;6.83;;;5.00;;
19189;SDS011;9727;50.200;19.038;2023-04-24T05:57:44;6.83;;;4.67;;
19189;SDS011;9727;50.200;19.038;2023-04-24T06:00:11;7.97;;;4.63;;
19189;SDS011;9727;50.200;19.038;2023-04-24T06:02:40;8.63;;;4.80;;
19189;SDS011;9727;50.200;19.038;2023-04-24T06:05:09;7.93;;;4.90;;
19189;SDS011;9727;50.200;19.038;2023-04-24T06:07:36;9.63;;;5.93;;
19189;SDS011;9727;50.200;19.038;2023-04-24T06:10:04;8.20;;;5.43;;
19189;SDS011;9727;50.200;19.038;2023-04-24T06:12:32;11.17;;;5.20;;
19189;SDS011;9727;50.200;19.038;2023-04-24T06:14:58;7.90;;;5.10;;
19189;SDS011;9727;50.200;19.038;2023-04-24T06:17:25;10.00;;;5.03;;
19189;SDS011;9727;50.200;19.038;2023-04-24T06:19:51;7.10;;;4.67;;
19189;SDS011;9727;50.200;19.038;2023-04-24T06:22:23;7.73;;;4.47;;
19189;SDS011;9727;50.200;19.038;2023-04-24T06:24:50;7.60;;;4.87;;
19189;SDS011;9727;50.200;19.038;2023-04-24T06:27:21;7.37;;;4.40;;
19189;SDS011;9727;50.200;19.038;2023-04-24T06:29:50;9.43;;;5.10;;
19189;SDS011;9727;50.200;19.038;2023-04-24T06:32:20;7.77;;;4.87;;
19189;SDS011;9727;50.200;19.038;2023-04-24T06:34:47;8.90;;;5.10;;
19189;SDS011;9727;50.200;19.038;2023-04-24T06:37:14;7.13;;;4.60;;
19189;SDS011;9727;50.200;19.038;2023-04-24T06:39:41;7.17;;;4.70;;
19189;SDS011;9727;50.200;19.038;2023-04-24T06:42:08;5.70;;;4.17;;
19189;SDS011;9727;50.200;19.038;2023-04-24T06:44:36;6.80;;;4.37;;
19189;SDS011;9727;50.200;19.038;2023-04-24T06:47:06;5.97;;;4.67;;
19189;SDS011;9727;50.200;19.038;2023-04-24T06:49:32;8.50;;;4.20;;
19189;SDS011;9727;50.200;19.038;2023-04-24T06:52:00;7.37;;;4.40;;
19189;SDS011;9727;50.200;19.038;2023-04-24T06:54:26;6.87;;;4.30;;
19189;SDS011;9727;50.200;19.038;2023-04-24T06:56:53;5.53;;;4.17;;
19189;SDS011;9727;50.200;19.038;2023-04-24T06:59:20;4.93;;;3.80;;
19189;SDS011;9727;50.200;19.038;2023-04-24T07:01:48;8.63;;;4.03;;
19189;SDS011;9727;50.200;19.038;2023-04-24T07:04:15;6.13;;;4.00;;
19189;SDS011;9727;50.200;19.038;2023-04-24T07:06:41;8.47;;;4.40;;
19189;SDS011;9727;50.200;19.038;2023-04-24T07:09:08;5.83;;;4.20;;
19189;SDS011;9727;50.200;19.038;2023-04-24T07:11:35;5.33;;;4.37;;
19189;SDS011;9727;50.200;19.038;2023-04-24T07:14:03;5.93;;;3.80;;
19189;SDS011;9727;50.200;19.038;2023-04-24T07:16:30;6.97;;;4.10;;
19189;SDS011;9727;50.200;19.038;2023-04-24T07:18:58;5.53;;;3.97;;
19189;SDS011;9727;50.200;19.038;2023-04-24T07:21:25;5.70;;;3.90;;
19189;SDS011;9727;50.200;19.038;2023-04-24T07:23:52;4.87;;;3.87;;
19189;SDS011;9727;50.200;19.038;2023-04-24T07:26:21;7.67;;;4.33;;
19189;SDS011;9727;50.200;19.038;2023-04-24T07:28:48;6.57;;;4.33;;
19189;SDS011;9727;50.200;19.038;2023-04-24T07:31:16;9.63;;;3.70;;
19189;SDS011;9727;50.200;19.038;2023-04-24T07:33:43;5.00;;;3.80;;
19189;SDS011;9727;50.200;19.038;2023-04-24T07:36:17;7.33;;;4.60;;
19189;SDS011;9727;50.200;19.038;2023-04-24T07:38:49;5.87;;;4.00;;
19189;SDS011;9727;50.200;19.038;2023-04-24T07:41:16;8.30;;;4.30;;
19189;SDS011;9727;50.200;19.038;2023-04-24T07:44:02;7.70;;;4.57;;
19189;SDS011;9727;50.200;19.038;2023-04-24T07:46:29;6.97;;;4.17;;
19189;SDS011;9727;50.200;19.038;2023-04-24T07:48:56;5.50;;;3.90;;
19189;SDS011;9727;50.200;19.038;2023-04-24T07:51:25;4.27;;;3.43;;
19189;SDS011;9727;50.200;19.038;2023-04-24T07:53:52;5.67;;;3.87;;
19189;SDS011;9727;50.200;19.038;2023-04-24T07:56:19;7.20;;;4.10;;
19189;SDS011;9727;50.200;19.038;2023-04-24T07:58:47;6.70;;;3.70;;
19189;SDS011;9727;50.200;19.038;2023-04-24T08:01:14;6.77;;;4.30;;
19189;SDS011;9727;50.200;19.038;2023-04-24T08:03:40;8.40;;;3.87;;
19189;SDS011;9727;50.200;19.038;2023-04-24T08:06:07;5.70;;;3.90;;
19189;SDS011;9727;50.200;19.038;2023-04-24T08:08:35;6.50;;;4.10;;
19189;SDS011;9727;50.200;19.038;2023-04-24T08:11:02;6.10;;;4.33;;
19189;SDS011;9727;50.200;19.038;2023-04-24T08:13:29;5.60;;;3.70;;
19189;SDS011;9727;50.200;19.038;2023-04-24T08:15:56;6.70;;;4.40;;
19189;SDS011;9727;50.200;19.038;2023-04-24T08:18:22;6.77;;;4.30;;
19189;SDS011;9727;50.200;19.038;2023-04-24T08:20:49;7.30;;;4.37;;
19189;SDS011;9727;50.200;19.038;2023-04-24T08:23:16;7.97;;;4.20;;
19189;SDS011;9727;50.200;19.038;2023-04-24T08:25:44;5.43;;;3.77;;
19189;SDS011;9727;50.200;19.038;2023-04-24T08:28:11;4.20;;;3.60;;
19189;SDS011;9727;50.200;19.038;2023-04-24T08:30:37;6.93;;;4.13;;
19189;SDS011;9727;50.200;19.038;2023-04-24T08:33:04;5.57;;;4.07;;
19189;SDS011;9727;50.200;19.038;2023-04-24T08:35:31;5.10;;;4.37;;
19189;SDS011;9727;50.200;19.038;2023-04-24T08:37:58;4.70;;;3.70;;
19189;SDS011;9727;50.200;19.038;2023-04-24T08:40:27;5.37;;;3.77;;
19189;SDS011;9727;50.200;19.038;2023-04-24T08:42:55;4.33;;;3.30;;
19189;SDS011;9727;50.200;19.038;2023-04-24T08:45:22;4.93;;;3.27;;
19189;SDS011;9727;50.200;19.038;2023-04-24T08:47:49;4.80;;;3.60;;
19189;SDS011;9727;50.200;19.038;2023-04-24T08:50:17;3.80;;;3.13;;
19189;SDS011;9727;50.200;19.038;2023-04-24T08:52:49;3.72;;;3.28;;
19189;SDS011;9727;50.200;19.038;2023-04-24T08:55:24;4.57;;;3.53;;
19189;SDS011;9727;50.200;19.038;2023-04-24T08:57:51;5.20;;;3.83;;
19189;SDS011;9727;50.200;19.038;2023-04-24T09:00:23;5.68;;;3.20;;
19189;SDS011;9727;50.200;19.038;2023-04-24T09:02:49;5.72;;;3.30;;
19189;SDS011;9727;50.200;19.038;2023-04-24T09:05:17;4.82;;;3.28;;
19189;SDS011;9727;50.200;19.038;2023-04-24T09:07:45;5.05;;;3.28;;
19189;SDS011;9727;50.200;19.038;2023-04-24T09:10:15;4.53;;;3.40;;
19189;SDS011;9727;50.200;19.038;2023-04-24T09:12:44;8.23;;;3.88;;
19189;SDS011;9727;50.200;19.038;2023-04-24T09:15:11;4.32;;;3.20;;
19189;SDS011;9727;50.200;19.038;2023-04-24T09:17:39;3.92;;;3.42;;
19189;SDS011;9727;50.200;19.038;2023-04-24T09:20:06;3.53;;;3.22;;
19189;SDS011;9727;50.200;19.038;2023-04-24T09:22:33;5.68;;;3.08;;
19189;SDS011;9727;50.200;19.038;2023-04-24T09:25:04;5.30;;;3.28;;
19189;SDS011;9727;50.200;19.038;2023-04-24T09:27:33;4.90;;;3.17;;
19189;SDS011;9727;50.200;19.038;2023-04-24T09:30:01;5.57;;;3.55;;
19189;SDS011;9727;50.200;19.038;2023-04-24T09:32:28;5.40;;;3.20;;
19189;SDS011;9727;50.200;19.038;2023-04-24T09:35:08;8.18;;;3.60;;
19189;SDS011;9727;50.200;19.038;2023-04-24T09:37:35;5.72;;;3.88;;
19189;SDS011;9727;50.200;19.038;2023-04-24T09:40:13;5.82;;;3.50;;
19189;SDS011;9727;50.200;19.038;2023-04-24T09:42:40;6.10;;;4.03;;
19189;SDS011;9727;50.200;19.038;2023-04-24T09:45:09;9.68;;;4.32;;
19189;SDS011;9727;50.200;19.038;2023-04-24T09:47:36;5.28;;;4.07;;
19189;SDS011;9727;50.200;19.038;2023-04-24T09:50:12;6.75;;;4.35;;
19189;SDS011;9727;50.200;19.038;2023-04-24T09:52:40;4.82;;;3.92;;
19189;SDS011;9727;50.200;19.038;2023-04-24T09:55:13;5.80;;;3.97;;
19189;SDS011;9727;50.200;19.038;2023-04-24T09:57:50;7.28;;;4.15;;
19189;SDS011;9727;50.200;19.038;2023-04-24T10:00:23;7.32;;;4.10;;
19189;SDS011;9727;50.200;19.038;2023-04-24T10:02:54;5.68;;;4.20;;
19189;SDS011;9727;50.200;19.038;2023-04-24T10:05:24;5.90;;;3.97;;
19189;SDS011;9727;50.200;19.038;2023-04-24T10:07:51;5.82;;;4.10;;
19189;SDS011;9727;50.200;19.038;2023-04-24T10:10:22;8.68;;;4.50;;
19189;SDS011;9727;50.200;19.038;2023-04-24T10:12:49;6.47;;;4.00;;
19189;SDS011;9727;50.200;19.038;2023-04-24T10:15:16;9.73;;;4.40;;
19189;SDS011;9727;50.200;19.038;2023-04-24T10:17:47;7.00;;;4.50;;
19189;SDS011;9727;50.200;19.038;2023-04-24T10:20:19;4.43;;;3.90;;
19189;SDS011;9727;50.200;19.038;2023-04-24T10:22:51;8.02;;;4.40;;
19189;SDS011;9727;50.200;19.038;2023-04-24T10:25:21;5.65;;;4.15;;
19189;SDS011;9727;50.200;19.038;2023-04-24T10:27:49;5.63;;;4.07;;
19189;SDS011;9727;50.200;19.038;2023-04-24T10:30:25;5.22;;;4.20;;
19189;SDS011;9727;50.200;19.038;2023-04-24T10:32:52;6.38;;;4.28;;
19189;SDS011;9727;50.200;19.038;2023-04-24T10:35:19;8.02;;;4.05;;
19189;SDS011;9727;50.200;19.038;2023-04-24T10:37:48;9.15;;;4.32;;
19189;SDS011;9727;50.200;19.038;2023-04-24T10:40:17;4.93;;;3.65;;
19189;SDS011;9727;50.200;19.038;2023-04-24T10:42:47;7.25;;;3.90;;
19189;SDS011;9727;50.200;19.038;2023-04-24T10:45:16;15.05;;;5.57;;
19189;SDS011;9727;50.200;19.038;2023-04-24T10:47:59;6.15;;;3.97;;
19189;SDS011;9727;50.200;19.038;2023-04-24T10:50:27;10.10;;;4.55;;
19189;SDS011;9727;50.200;19.038;2023-04-24T10:53:05;7.35;;;4.20;;
19189;SDS011;9727;50.200;19.038;2023-04-24T10:55:46;6.75;;;3.90;;
19189;SDS011;9727;50.200;19.038;2023-04-24T10:58:13;7.05;;;4.18;;
19189;SDS011;9727;50.200;19.038;2023-04-24T11:00:43;7.30;;;3.85;;
19189;SDS011;9727;50.200;19.038;2023-04-24T11:03:23;5.85;;;3.70;;
19189;SDS011;9727;50.200;19.038;2023-04-24T11:05:51;6.10;;;3.50;;
19189;SDS011;9727;50.200;19.038;2023-04-24T11:08:22;8.13;;;3.75;;
19189;SDS011;9727;50.200;19.038;2023-04-24T11:10:56;9.15;;;4.80;;
19189;SDS011;9727;50.200;19.038;2023-04-24T11:13:23;6.63;;;4.07;;
19189;SDS011;9727;50.200;19.038;2023-04-24T11:18:36;8.35;;;4.30;;
19189;SDS011;9727;50.200;19.038;2023-04-24T11:21:09;10.13;;;4.70;;
19189;SDS011;9727;50.200;19.038;2023-04-24T11:23:36;6.03;;;4.38;;
19189;SDS011;9727;50.200;19.038;2023-04-24T11:28:51;5.40;;;4.47;;
19189;SDS011;9727;50.200;19.038;2023-04-24T11:31:36;9.20;;;4.63;;
19189;SDS011;9727;50.200;19.038;2023-04-24T11:34:07;8.73;;;4.68;;
19189;SDS011;9727;50.200;19.038;2023-04-24T11:36:34;5.68;;;4.95;;
19189;SDS011;9727;50.200;19.038;2023-04-24T11:39:01;5.13;;;4.50;;
19189;SDS011;9727;50.200;19.038;2023-04-24T11:41:28;9.40;;;5.57;;
19189;SDS011;9727;50.200;19.038;2023-04-24T11:43:56;6.65;;;4.55;;
19189;SDS011;9727;50.200;19.038;2023-04-24T11:46:26;7.80;;;4.70;;
19189;SDS011;9727;50.200;19.038;2023-04-24T11:48:52;10.35;;;4.90;;
19189;SDS011;9727;50.200;19.038;2023-04-24T11:51:19;6.28;;;4.32;;
19189;SDS011;9727;50.200;19.038;2023-04-24T11:56:58;6.05;;;4.00;;
19189;SDS011;9727;50.200;19.038;2023-04-24T11:59:27;7.80;;;4.18;;
19189;SDS011;9727;50.200;19.038;2023-04-24T12:01:56;5.93;;;4.07;;
19189;SDS011;9727;50.200;19.038;2023-04-24T12:04:23;4.65;;;4.18;;
19189;SDS011;9727;50.200;19.038;2023-04-24T12:06:59;5.68;;;4.10;;
19189;SDS011;9727;50.200;19.038;2023-04-24T12:09:25;7.38;;;4.50;;
19189;SDS011;9727;50.200;19.038;2023-04-24T12:11:52;7.57;;;4.70;;
19189;SDS011;9727;50.200;19.038;2023-04-24T12:14:19;6.13;;;4.20;;
19189;SDS011;9727;50.200;19.038;2023-04-24T12:16:51;8.32;;;4.32;;
19189;SDS011;9727;50.200;19.038;2023-04-24T12:19:21;6.82;;;4.30;;
19189;SDS011;9727;50.200;19.038;2023-04-24T12:21:58;6.60;;;4.50;;
19189;SDS011;9727;50.200;19.038;2023-04-24T12:24:25;8.85;;;4.10;;
19189;SDS011;9727;50.200;19.038;2023-04-24T12:26:52;5.30;;;3.97;;
19189;SDS011;9727;50.200;19.038;2023-04-24T12:29:19;4.22;;;3.83;;
19189;SDS011;9727;50.200;19.038;2023-04-24T12:31:51;5.75;;;3.70;;
19189;SDS011;9727;50.200;19.038;2023-04-24T12:34:19;4.18;;;3.33;;
19189;SDS011;9727;50.200;19.038;2023-04-24T12:36:47;6.15;;;3.47;;
19189;SDS011;9727;50.200;19.038;2023-04-24T12:39:14;6.28;;;3.63;;
19189;SDS011;9727;50.200;19.038;2023-04-24T12:41:49;3.15;;;2.83;;
19189;SDS011;9727;50.200;19.038;2023-04-24T12:44:16;4.82;;;3.20;;
19189;SDS011;9727;50.200;19.038;2023-04-24T12:46:44;3.50;;;2.90;;
19189;SDS011;9727;50.200;19.038;2023-04-24T12:49:12;4.30;;;2.65;;
19189;SDS011;9727;50.200;19.038;2023-04-24T12:51:39;3.03;;;2.42;;
19189;SDS011;9727;50.200;19.038;2023-04-24T12:54:06;3.05;;;2.75;;
19189;SDS011;9727;50.200;19.038;2023-04-24T12:56:32;5.95;;;2.88;;
19189;SDS011;9727;50.200;19.038;2023-04-24T12:59:01;2.55;;;2.30;;
19189;SDS011;9727;50.200;19.038;2023-04-24T13:01:28;6.22;;;2.75;;
19189;SDS011;9727;50.200;19.038;2023-04-24T13:03:54;3.60;;;3.30;;
19189;SDS011;9727;50.200;19.038;2023-04-24T13:06:22;9.90;;;4.25;;
19189;SDS011;9727;50.200;19.038;2023-04-24T13:08:49;4.78;;;3.38;;
19189;SDS011;9727;50.200;19.038;2023-04-24T13:11:16;3.88;;;3.53;;
19189;SDS011;9727;50.200;19.038;2023-04-24T13:13:49;4.20;;;3.28;;
19189;SDS011;9727;50.200;19.038;2023-04-24T13:16:16;5.88;;;3.97;;
19189;SDS011;9727;50.200;19.038;2023-04-24T13:18:43;4.82;;;4.20;;
19189;SDS011;9727;50.200;19.038;2023-04-24T13:21:09;4.50;;;3.63;;
19189;SDS011;9727;50.200;19.038;2023-04-24T13:23:37;11.38;;;3.92;;
19189;SDS011;9727;50.200;19.038;2023-04-24T13:26:04;4.70;;;4.05;;
19189;SDS011;9727;50.200;19.038;2023-04-24T13:28:30;5.63;;;3.88;;
19189;SDS011;9727;50.200;19.038;2023-04-24T13:30:57;5.95;;;4.15;;
19189;SDS011;9727;50.200;19.038;2023-04-24T13:33:24;4.90;;;3.90;;
19189;SDS011;9727;50.200;19.038;2023-04-24T13:35:51;8.47;;;4.23;;
19189;SDS011;9727;50.200;19.038;2023-04-24T13:38:17;5.80;;;4.00;;
19189;SDS011;9727;50.200;19.038;2023-04-24T13:40:50;8.73;;;4.33;;
19189;SDS011;9727;50.200;19.038;2023-04-24T13:43:17;4.93;;;4.43;;
19189;SDS011;9727;50.200;19.038;2023-04-24T13:45:45;5.80;;;4.43;;
19189;SDS011;9727;50.200;19.038;2023-04-24T13:48:14;7.80;;;4.47;;
19189;SDS011;9727;50.200;19.038;2023-04-24T13:50:41;8.47;;;4.50;;
19189;SDS011;9727;50.200;19.038;2023-04-24T13:53:08;6.83;;;4.53;;
19189;SDS011;9727;50.200;19.038;2023-04-24T13:55:35;6.90;;;4.67;;
19189;SDS011;9727;50.200;19.038;2023-04-24T13:58:03;8.50;;;4.70;;
19189;SDS011;9727;50.200;19.038;2023-04-24T14:00:30;6.13;;;4.70;;
19189;SDS011;9727;50.200;19.038;2023-04-24T14:02:57;6.07;;;4.57;;
19189;SDS011;9727;50.200;19.038;2023-04-24T14:05:23;6.93;;;4.80;;
19189;SDS011;9727;50.200;19.038;2023-04-24T14:07:50;6.30;;;4.90;;
19189;SDS011;9727;50.200;19.038;2023-04-24T14:10:17;7.17;;;5.00;;
19189;SDS011;9727;50.200;19.038;2023-04-24T14:12:49;8.13;;;5.57;;
19189;SDS011;9727;50.200;19.038;2023-04-24T14:15:17;7.57;;;5.60;;
19189;SDS011;9727;50.200;19.038;2023-04-24T14:17:46;7.57;;;5.37;;
19189;SDS011;9727;50.200;19.038;2023-04-24T14:20:13;7.13;;;5.43;;
19189;SDS011;9727;50.200;19.038;2023-04-24T14:22:40;7.63;;;5.00;;
19189;SDS011;9727;50.200;19.038;2023-04-24T14:25:07;6.93;;;4.10;;
19189;SDS011;9727;50.200;19.038;2023-04-24T14:27:34;6.90;;;4.60;;
19189;SDS011;9727;50.200;19.038;2023-04-24T14:30:01;5.67;;;4.63;;
19189;SDS011;9727;50.200;19.038;2023-04-24T14:32:29;6.97;;;4.90;;
19189;SDS011;9727;50.200;19.038;2023-04-24T14:34:56;5.17;;;4.00;;
19189;SDS011;9727;50.200;19.038;2023-04-24T14:37:23;4.57;;;4.17;;
19189;SDS011;9727;50.200;19.038;2023-04-24T14:39:49;4.13;;;3.53;;
19189;SDS011;9727;50.200;19.038;2023-04-24T14:42:16;4.00;;;3.13;;
19189;SDS011;9727;50.200;19.038;2023-04-24T14:44:43;4.30;;;3.40;;
19189;SDS011;9727;50.200;19.038;2023-04-24T14:47:10;5.13;;;3.30;;
19189;SDS011;9727;50.200;19.038;2023-04-24T14:49:38;3.37;;;3.07;;
19189;SDS011;9727;50.200;19.038;2023-04-24T14:52:05;4.70;;;3.00;;
19189;SDS011;9727;50.200;19.038;2023-04-24T14:54:31;3.40;;;3.10;;
19189;SDS011;9727;50.200;19.038;2023-04-24T14:56:58;5.27;;;3.30;;
19189;SDS011;9727;50.200;19.038;2023-04-24T14:59:27;4.03;;;3.20;;
19189;SDS011;9727;50.200;19.038;2023-04-24T15:01:53;4.53;;;3.10;;